Time;durP1;ratioP1;P1;durP2;ratioP2;P2;SDS_P1;SDS_P2;PMS_P1;PMS_P2;Temp;Humidity;BMP_temperature;BMP_pressure;BME280_temperature;BME280_humidity;BME280_pressure;Samples;Min_cycle;Max_cycle;Signal;HPM_P1;HPM_P2
2023/05/27 00:00:57;;;;;;;15.88;7.70;;;;;;;10.04;100.00;93618.72;2096824;28;20028;-82
2023/05/27 00:01:58;;;;;;;12.18;7.78;;;;;;;9.93;100.00;93624.19;2105637;28;20498;-80
2023/05/27 00:03:00;;;;;;;10.20;7.40;;;;;;;9.89;100.00;93631.47;2100791;28;20059;-82
2023/05/27 00:04:05;;;;;;;12.93;7.70;;;;;;;9.73;100.00;93623.25;2100218;28;20031;-81
2023/05/27 00:05:06;;;;;;;11.82;7.72;;;;;;;9.66;100.00;93625.97;2097444;28;20028;-82
2023/05/27 00:06:07;;;;;;;13.20;7.70;;;;;;;9.49;100.00;93625.78;2102070;28;20173;-83
2023/05/27 00:07:09;;;;;;;15.25;8.15;;;;;;;9.62;100.00;93626.03;2097477;28;20020;-82
2023/05/27 00:08:14;;;;;;;16.50;8.07;;;;;;;9.70;100.00;93626.72;2107846;28;20031;-83
2023/05/27 00:09:17;;;;;;;16.58;7.60;;;;;;;9.59;100.00;93624.91;2100112;27;20417;-81
2023/05/27 00:10:18;;;;;;;13.15;7.65;;;;;;;9.61;100.00;93619.16;2108657;28;20035;-81
2023/05/27 00:11:21;;;;;;;16.83;7.75;;;;;;;9.59;100.00;93622.25;2109538;28;20023;-82
2023/05/27 00:12:22;;;;;;;17.33;7.85;;;;;;;9.63;100.00;93621.47;2115664;28;20034;-83
2023/05/27 00:13:24;;;;;;;12.57;8.10;;;;;;;9.52;100.00;93622.31;2112325;28;20019;-81
2023/05/27 00:14:32;;;;;;;16.60;7.82;;;;;;;9.55;100.00;93623.44;2114198;28;20020;-82
2023/05/27 00:15:34;;;;;;;11.77;7.15;;;;;;;9.51;100.00;93620.78;2120387;28;20027;-81
2023/05/27 00:16:35;;;;;;;14.98;8.00;;;;;;;9.47;100.00;93625.41;2096577;28;20051;-81
2023/05/27 00:17:39;;;;;;;18.50;8.23;;;;;;;9.59;100.00;93626.81;2096549;28;20110;-83
2023/05/27 00:18:40;;;;;;;16.08;8.68;;;;;;;9.61;100.00;93611.16;2098681;28;20025;-82
2023/05/27 00:19:44;;;;;;;15.27;8.40;;;;;;;9.57;100.00;93615.81;2107641;28;20035;-81
2023/05/27 00:20:45;;;;;;;12.65;8.45;;;;;;;9.51;100.00;93615.47;2107684;27;20027;-84
2023/05/27 00:21:46;;;;;;;16.20;8.20;;;;;;;9.63;100.00;93618.78;2101743;28;20023;-81
2023/05/27 00:22:50;;;;;;;11.35;7.57;;;;;;;9.54;100.00;93617.34;2088944;28;20052;-83
2023/05/27 00:23:51;;;;;;;11.38;8.20;;;;;;;9.46;100.00;93615.13;2098120;28;20480;-81
2023/05/27 00:24:52;;;;;;;14.95;8.02;;;;;;;9.46;100.00;93618.56;2099449;28;20476;-81
2023/05/27 00:25:53;;;;;;;14.15;8.63;;;;;;;9.51;100.00;93617.38;2109564;28;20043;-82
2023/05/27 00:26:54;;;;;;;12.73;8.05;;;;;;;9.44;100.00;93617.44;2106735;28;20130;-81
2023/05/27 00:27:56;;;;;;;10.70;7.72;;;;;;;9.39;100.00;93612.53;2098302;28;20054;-81
2023/05/27 00:28:57;;;;;;;14.55;8.45;;;;;;;9.41;100.00;93608.31;2109559;28;20491;-81
2023/05/27 00:29:58;;;;;;;16.40;9.05;;;;;;;9.37;100.00;93615.59;2102485;28;20035;-81
2023/05/27 00:30:59;;;;;;;13.95;8.48;;;;;;;9.37;100.00;93612.19;2102812;27;20036;-81
2023/05/27 00:32:03;;;;;;;13.65;7.97;;;;;;;9.31;100.00;93622.53;2101174;28;20016;-82
2023/05/27 00:33:05;;;;;;;17.05;8.55;;;;;;;9.30;100.00;93624.41;2087944;28;20065;-81
2023/05/27 00:34:06;;;;;;;14.30;7.78;;;;;;;9.23;100.00;93619.16;2094151;28;20044;-82
2023/05/27 00:35:09;;;;;;;13.05;8.27;;;;;;;9.21;100.00;93618.78;2103717;28;20039;-82
2023/05/27 00:36:11;;;;;;;19.58;8.30;;;;;;;9.15;100.00;93617.69;2093845;28;20519;-82
2023/05/27 00:37:14;;;;;;;13.85;8.70;;;;;;;9.07;100.00;93616.97;2098629;28;20256;-83
2023/05/27 00:38:16;;;;;;;18.20;8.48;;;;;;;9.16;100.00;93616.53;2103057;28;20453;-82
2023/05/27 00:39:18;;;;;;;19.70;8.43;;;;;;;9.12;100.00;93618.47;2092809;28;20024;-81
2023/05/27 00:40:22;;;;;;;13.27;8.13;;;;;;;9.15;100.00;93609.69;2098287;28;20040;-82
2023/05/27 00:41:24;;;;;;;13.07;8.02;;;;;;;9.15;100.00;93620.34;2103939;28;20035;-81
2023/05/27 00:42:26;;;;;;;19.25;8.13;;;;;;;9.13;100.00;93614.66;2102221;28;20063;-81
2023/05/27 00:43:27;;;;;;;24.25;8.95;;;;;;;9.10;100.00;93614.69;2089468;28;20442;-81
2023/05/27 00:44:28;;;;;;;17.30;8.23;;;;;;;9.07;100.00;93614.31;2088934;28;20045;-83
2023/05/27 00:45:30;;;;;;;17.65;8.00;;;;;;;9.12;100.00;93612.38;2094219;28;20033;-81
2023/05/27 00:46:32;;;;;;;16.08;9.32;;;;;;;9.22;100.00;93606.97;2100572;28;20021;-82
2023/05/27 00:47:34;;;;;;;16.77;8.60;;;;;;;9.15;100.00;93608.94;2100588;28;20154;-83
2023/05/27 00:48:42;;;;;;;19.98;8.52;;;;;;;9.15;100.00;93606.28;2101427;28;20079;-81
2023/05/27 00:49:44;;;;;;;15.93;9.02;;;;;;;9.13;100.00;93603.22;2115700;28;20038;-83
2023/05/27 00:50:46;;;;;;;16.98;9.40;;;;;;;9.03;100.00;93607.50;2098372;28;20069;-81
2023/05/27 00:51:47;;;;;;;15.35;8.93;;;;;;;9.02;100.00;93614.75;2098411;28;20024;-83
2023/05/27 00:52:48;;;;;;;15.48;8.23;;;;;;;9.04;100.00;93604.47;2090835;28;20032;-83
2023/05/27 00:53:54;;;;;;;14.63;8.45;;;;;;;9.01;100.00;93612.47;2091210;28;20093;-81
2023/05/27 00:55:04;;;;;;;13.45;8.82;;;;;;;9.03;100.00;93608.25;2097764;28;20476;-81
2023/05/27 00:56:15;;;;;;;15.60;8.88;;;;;;;8.99;100.00;93614.75;2108931;28;20032;-81
2023/05/27 00:57:22;;;;;;;17.77;9.50;;;;;;;8.95;100.00;93608.69;2101950;28;20025;-82
2023/05/27 00:58:29;;;;;;;18.35;9.20;;;;;;;8.90;100.00;93612.53;2107563;28;20030;-81
2023/05/27 00:59:35;;;;;;;14.18;8.82;;;;;;;8.89;100.00;93615.63;2112806;28;20031;-80
2023/05/27 01:00:40;;;;;;;19.15;9.82;;;;;;;8.87;100.00;93608.00;2098642;28;20021;-82
2023/05/27 01:01:46;;;;;;;18.02;9.05;;;;;;;8.92;100.00;93612.94;2098394;28;20461;-81
2023/05/27 01:02:54;;;;;;;15.75;8.77;;;;;;;8.95;100.00;93603.38;2110718;27;20109;-81
2023/05/27 01:04:01;;;;;;;14.93;9.10;;;;;;;8.96;100.00;93605.66;2112109;28;20020;-82
2023/05/27 01:05:09;;;;;;;15.23;8.93;;;;;;;8.94;100.00;93607.19;2094879;28;20037;-82
2023/05/27 01:06:43;;;;;;;13.80;8.73;;;;;;;8.95;100.00;93611.38;2104483;28;20618;-81
2023/05/27 01:07:52;;;;;;;16.38;9.10;;;;;;;8.92;100.00;93604.94;2100760;28;20032;-83
2023/05/27 01:09:13;;;;;;;16.27;8.90;;;;;;;8.92;100.00;93604.94;2089257;28;20041;-82
2023/05/27 01:10:41;;;;;;;17.88;9.38;;;;;;;8.96;100.00;93594.25;2099126;28;20507;-81
2023/05/27 01:12:08;;;;;;;16.45;9.68;;;;;;;8.96;100.00;93596.91;2089710;28;20483;-82
2023/05/27 01:13:18;;;;;;;16.42;9.00;;;;;;;8.96;100.00;93595.00;2108182;27;20106;-82
2023/05/27 01:14:28;;;;;;;15.98;9.60;;;;;;;8.94;100.00;93591.19;2104423;28;20497;-81
2023/05/27 01:15:40;;;;;;;18.30;9.65;;;;;;;8.91;100.00;93586.63;2101517;28;20042;-80
2023/05/27 01:16:56;;;;;;;20.13;9.77;;;;;;;8.90;100.00;93591.22;2093374;28;20037;-81
2023/05/27 01:18:05;;;;;;;22.52;11.27;;;;;;;8.91;100.00;93589.31;2094275;28;20096;-81
2023/05/27 01:19:30;;;;;;;20.63;10.35;;;;;;;8.91;100.00;93583.97;2102551;28;20012;-82
2023/05/27 01:20:40;;;;;;;20.45;9.68;;;;;;;8.91;100.00;93592.75;2100943;28;20038;-82
2023/05/27 01:21:51;;;;;;;20.17;10.20;;;;;;;8.92;100.00;93585.50;2096144;28;20440;-80
2023/05/27 01:22:59;;;;;;;22.83;9.98;;;;;;;8.95;100.00;93593.47;2090976;28;20107;-82
2023/05/27 01:24:10;;;;;;;16.98;9.25;;;;;;;8.98;100.00;93592.69;2086565;28;20052;-80
2023/05/27 01:25:17;;;;;;;21.33;10.85;;;;;;;8.96;100.00;93592.31;2102309;28;20051;-81
2023/05/27 01:26:23;;;;;;;19.98;10.07;;;;;;;8.99;100.00;93590.78;2098159;28;20035;-81
2023/05/27 01:27:35;;;;;;;20.90;10.70;;;;;;;9.02;100.00;93588.06;2089366;28;20025;-82
2023/05/27 01:28:41;;;;;;;21.75;10.13;;;;;;;9.02;100.00;93590.00;2100253;28;20032;-82
2023/05/27 01:29:47;;;;;;;17.45;9.95;;;;;;;9.02;100.00;93584.66;2093870;28;20106;-81
2023/05/27 01:31:00;;;;;;;18.35;9.98;;;;;;;9.01;100.00;93583.91;2099506;28;20654;-81
2023/05/27 01:32:22;;;;;;;21.05;10.27;;;;;;;9.07;100.00;93586.91;2106823;28;20024;-81
2023/05/27 01:33:32;;;;;;;16.73;9.93;;;;;;;9.16;100.00;93578.44;2101903;28;20024;-82
2023/05/27 01:34:59;;;;;;;19.35;10.20;;;;;;;9.12;100.00;93585.72;2108026;28;20032;-82
2023/05/27 01:36:14;;;;;;;23.38;10.27;;;;;;;9.20;100.00;93584.50;2108235;28;20066;-83
2023/05/27 01:37:26;;;;;;;21.10;9.57;;;;;;;9.19;100.00;93583.75;2098821;28;20032;-81
2023/05/27 01:38:35;;;;;;;21.85;9.65;;;;;;;9.20;100.00;93584.50;2104432;28;20024;-82
2023/05/27 01:39:47;;;;;;;22.20;10.63;;;;;;;9.19;100.00;93581.09;2095547;28;20377;-82
2023/05/27 01:40:54;;;;;;;20.48;11.00;;;;;;;9.20;100.00;93579.16;2091958;28;20605;-81
2023/05/27 01:42:01;;;;;;;20.92;10.20;;;;;;;9.18;100.00;93576.91;2096386;28;20138;-81
2023/05/27 01:43:10;;;;;;;22.17;10.18;;;;;;;9.15;100.00;93576.94;2104441;28;20032;-81
2023/05/27 01:44:19;;;;;;;19.63;10.18;;;;;;;9.13;100.00;93576.56;2098101;28;20118;-81
2023/05/27 01:45:26;;;;;;;21.50;10.32;;;;;;;9.06;100.00;93577.38;2099636;28;20021;-81
2023/05/27 01:46:34;;;;;;;24.77;9.90;;;;;;;9.03;100.00;93578.16;2099659;28;20488;-81
2023/05/27 01:47:45;;;;;;;18.05;9.48;;;;;;;9.03;100.00;93572.84;2100596;28;20028;-83
2023/05/27 01:48:51;;;;;;;20.42;10.15;;;;;;;9.01;100.00;93575.16;2094422;28;20127;-80
2023/05/27 01:49:59;;;;;;;18.23;9.90;;;;;;;8.99;100.00;93567.53;2098099;28;20102;-82
2023/05/27 01:51:05;;;;;;;26.95;10.88;;;;;;;9.02;100.00;93571.31;2104583;28;20028;-81
2023/05/27 01:52:10;;;;;;;23.20;10.73;;;;;;;9.02;100.00;93571.31;2113932;28;20016;-81
2023/05/27 01:53:14;;;;;;;22.05;10.65;;;;;;;9.04;100.00;93567.13;2107140;28;20020;-82
2023/05/27 01:54:15;;;;;;;23.67;10.32;;;;;;;8.99;100.00;93570.19;2117400;27;20060;-82
2023/05/27 01:55:17;;;;;;;20.30;10.55;;;;;;;8.99;100.00;93567.53;2118274;27;20027;-81
2023/05/27 01:56:18;;;;;;;20.48;9.93;;;;;;;8.87;100.00;93569.91;2103032;28;20100;-82
2023/05/27 01:57:26;;;;;;;22.92;10.25;;;;;;;8.91;100.00;93565.31;2100068;28;20033;-82
2023/05/27 01:58:29;;;;;;;22.25;10.02;;;;;;;8.84;100.00;93560.81;2101581;28;20629;-82
2023/05/27 01:59:34;;;;;;;26.98;10.82;;;;;;;8.85;100.00;93570.31;2100023;28;20107;-82
2023/05/27 02:00:37;;;;;;;21.10;11.02;;;;;;;8.81;100.00;93569.59;2104206;28;20024;-81
2023/05/27 02:01:42;;;;;;;23.92;9.75;;;;;;;8.82;100.00;93565.75;2103938;28;20062;-82
2023/05/27 02:02:47;;;;;;;20.23;9.98;;;;;;;8.81;100.00;93567.66;2101011;28;20027;-81
2023/05/27 02:03:51;;;;;;;23.25;9.93;;;;;;;8.81;100.00;93567.66;2097615;28;20024;-81
2023/05/27 02:04:57;;;;;;;20.85;10.38;;;;;;;8.76;100.00;93564.69;2099337;28;20426;-81
2023/05/27 02:06:03;;;;;;;19.70;9.80;;;;;;;8.76;100.00;93568.09;2097370;28;20028;-81
2023/05/27 02:07:10;;;;;;;24.27;10.38;;;;;;;8.76;100.00;93562.00;2098709;28;20052;-82
2023/05/27 02:08:18;;;;;;;16.02;10.38;;;;;;;8.74;100.00;93562.41;2105756;28;20024;-81
2023/05/27 02:09:23;;;;;;;18.92;10.20;;;;;;;8.71;100.00;93575.75;2109240;28;20456;-83
2023/05/27 02:10:27;;;;;;;23.73;10.73;;;;;;;8.69;100.00;93567.38;2090746;28;20075;-81
2023/05/27 02:11:31;;;;;;;24.52;10.68;;;;;;;8.67;100.00;93565.13;2098792;28;20024;-81
2023/05/27 02:12:39;;;;;;;20.85;10.60;;;;;;;8.69;100.00;93564.72;2097368;28;20056;-82
2023/05/27 02:13:49;;;;;;;19.98;9.98;;;;;;;8.76;100.00;93562.00;2090752;28;20032;-81
2023/05/27 02:14:56;;;;;;;17.38;10.50;;;;;;;8.77;100.00;93563.53;2090396;28;20051;-80
2023/05/27 02:16:04;;;;;;;21.95;10.45;;;;;;;8.75;100.00;93563.91;2102499;28;20035;-82
2023/05/27 02:17:14;;;;;;;18.73;9.82;;;;;;;8.69;100.00;93570.03;2099057;28;20024;-82
2023/05/27 02:18:20;;;;;;;;;;;;;;;8.65;100.00;93569.31;2099562;28;20662;-82
2023/05/27 02:21:24;;;;;;;;;;;;;;;8.55;100.00;93576.25;2135842;27;20178;-82
2023/05/27 02:22:32;;;;;;;17.63;10.35;;;;;;;8.47;100.00;93570.22;2129883;27;20320;-82
2023/05/27 02:23:40;;;;;;;19.92;10.30;;;;;;;8.50;100.00;93564.09;2113553;28;20036;-81
2023/05/27 02:24:48;;;;;;;21.55;10.23;;;;;;;8.41;100.00;93563.00;2113832;27;20039;-82
2023/05/27 02:25:58;;;;;;;19.80;10.70;;;;;;;8.44;100.00;93563.00;2125029;27;20015;-83
2023/05/27 02:27:15;;;;;;;22.65;11.00;;;;;;;8.46;100.00;93559.94;2129784;27;20543;-82
2023/05/27 02:28:25;;;;;;;27.73;11.77;;;;;;;8.39;100.00;93557.34;2117863;27;20637;-80
2023/05/27 02:29:29;;;;;;;26.67;11.45;;;;;;;8.41;100.00;93558.44;2117912;27;20233;-81
2023/05/27 02:30:32;;;;;;;21.23;9.60;;;;;;;8.41;100.00;93557.69;2120556;28;20600;-81
2023/05/27 02:31:40;;;;;;;22.60;11.13;;;;;;;8.41;100.00;93553.13;2119144;28;20134;-81
2023/05/27 02:32:44;;;;;;;23.90;10.63;;;;;;;8.39;100.00;93558.09;2123687;27;20613;-81
2023/05/27 02:33:50;;;;;;;31.35;10.55;;;;;;;8.41;100.00;93553.13;2129399;27;20042;-80
2023/05/27 02:34:59;;;;;;;22.63;11.07;;;;;;;8.40;100.00;93554.28;2114650;27;20024;-80
2023/05/27 02:36:05;;;;;;;24.33;10.82;;;;;;;8.40;100.00;93556.19;2114175;28;20039;-80
2023/05/27 02:37:11;;;;;;;31.27;11.20;;;;;;;8.39;100.00;93552.75;2112840;28;20484;-82
2023/05/27 02:38:21;;;;;;;20.45;10.45;;;;;;;8.44;100.00;93554.25;2106431;28;20025;-82
2023/05/27 02:39:30;;;;;;;23.75;10.43;;;;;;;8.41;100.00;93550.44;2121603;27;20031;-80
2023/05/27 02:40:57;;;;;;;25.50;10.73;;;;;;;8.39;100.00;93549.34;2126089;27;20031;-82
2023/05/27 02:42:02;;;;;;;26.10;11.05;;;;;;;8.36;100.00;93552.75;2128663;27;20065;-80
2023/05/27 02:43:10;;;;;;;22.02;10.88;;;;;;;8.30;100.00;93549.75;2113751;28;20036;-85
2023/05/27 02:44:14;;;;;;;28.80;10.93;;;;;;;8.27;100.00;93548.63;2111293;28;20027;-81
2023/05/27 02:45:19;;;;;;;24.00;11.13;;;;;;;8.25;100.00;93550.13;2113941;28;20068;-82
2023/05/27 02:46:25;;;;;;;23.77;10.57;;;;;;;8.24;100.00;93543.31;2121581;27;20020;-82
2023/05/27 02:47:39;;;;;;;20.48;10.70;;;;;;;8.20;100.00;93551.31;2106249;28;20042;-80
2023/05/27 02:48:47;;;;;;;28.50;10.93;;;;;;;8.41;100.00;93549.69;2124576;27;20030;-81
2023/05/27 02:49:56;;;;;;;24.48;11.02;;;;;;;8.35;100.00;93549.34;2115494;28;20027;-82
2023/05/27 02:51:04;;;;;;;27.60;10.68;;;;;;;8.26;100.00;93554.34;2119797;27;20019;-80
2023/05/27 02:52:13;;;;;;;21.48;10.77;;;;;;;8.15;100.00;93550.97;2130600;27;20019;-81
2023/05/27 02:53:21;;;;;;;28.35;11.23;;;;;;;8.20;100.00;93555.88;2118933;28;20047;-82
2023/05/27 02:54:27;;;;;;;22.63;9.80;;;;;;;8.16;100.00;93553.22;2112127;28;20067;-81
2023/05/27 02:55:37;;;;;;;20.42;10.68;;;;;;;8.15;100.00;93553.63;2114827;27;20016;-80
2023/05/27 02:56:42;;;;;;;;;;;;;;;8.13;100.00;93553.28;2123838;27;20055;-80
2023/05/27 02:57:55;;;;;;;21.98;10.45;;;;;;;8.05;100.00;93552.53;2126067;27;19911;-82
2023/05/27 02:59:01;;;;;;;21.02;10.73;;;;;;;8.02;100.00;93548.00;2129787;27;20081;-81
2023/05/27 03:00:09;;;;;;;23.90;10.18;;;;;;;8.01;100.00;93547.22;2113496;28;20024;-80
2023/05/27 03:01:17;;;;;;;22.63;9.98;;;;;;;7.97;100.00;93548.41;2115096;28;20030;-81
2023/05/27 03:02:25;;;;;;;28.15;11.13;;;;;;;7.98;100.00;93547.25;2122981;27;20769;-81
2023/05/27 03:03:32;;;;;;;22.75;9.73;;;;;;;7.94;100.00;93544.59;2122221;27;20418;-82
2023/05/27 03:04:41;;;;;;;20.10;10.00;;;;;;;7.98;100.00;93541.91;2107147;28;20035;-81
2023/05/27 03:05:50;;;;;;;20.23;9.38;;;;;;;7.96;100.00;93546.88;2105088;28;20522;-81
2023/05/27 03:06:59;;;;;;;20.77;10.90;;;;;;;7.92;100.00;93541.56;2114109;28;20472;-80
2023/05/27 03:08:20;;;;;;;20.25;10.13;;;;;;;7.90;100.00;93538.56;2121021;28;20049;-81
2023/05/27 03:09:29;;;;;;;22.77;9.75;;;;;;;7.86;100.00;93542.34;2117751;27;20022;-82
2023/05/27 03:10:35;;;;;;;27.52;10.43;;;;;;;7.84;100.00;93542.75;2128878;27;20042;-79
2023/05/27 03:11:40;;;;;;;22.30;10.55;;;;;;;7.78;100.00;93536.31;2113478;28;20105;-81
2023/05/27 03:12:43;;;;;;;23.95;10.57;;;;;;;7.80;100.00;93539.34;2111536;27;20551;-80
2023/05/27 03:13:49;;;;;;;23.55;11.25;;;;;;;7.80;100.00;93537.44;2127627;28;20023;-84
2023/05/27 03:14:54;;;;;;;21.05;11.15;;;;;;;7.76;100.00;93535.94;2114030;28;20088;-79
2023/05/27 03:16:00;;;;;;;21.98;10.60;;;;;;;7.73;100.00;93540.16;2117508;28;20032;-79
2023/05/27 03:17:03;;;;;;;24.90;11.02;;;;;;;7.72;100.00;93535.19;2121952;28;20020;-82
2023/05/27 03:18:08;;;;;;;27.33;11.18;;;;;;;7.65;100.00;93546.63;2119787;28;20008;-80
2023/05/27 03:19:11;;;;;;;20.15;10.60;;;;;;;7.68;100.00;93545.09;2104008;28;20032;-81
2023/05/27 03:20:21;;;;;;;22.05;10.77;;;;;;;7.66;100.00;93542.81;2107183;28;20055;-81
2023/05/27 03:21:28;;;;;;;31.83;11.38;;;;;;;7.71;100.00;93545.09;2115010;28;20044;-82
2023/05/27 03:22:38;;;;;;;49.85;12.23;;;;;;;7.69;100.00;93543.97;2106823;28;20026;-83
2023/05/27 03:23:46;;;;;;;48.95;11.43;;;;;;;7.65;100.00;93548.53;2107306;28;20035;-82
2023/05/27 03:24:57;;;;;;;31.00;11.27;;;;;;;7.68;100.00;93542.44;2113821;28;20028;-82
2023/05/27 03:26:01;;;;;;;;;;;;;;;7.64;100.00;93550.44;2105605;28;20016;-79
2023/05/27 03:27:05;;;;;;;27.85;10.38;;;;;;;7.65;100.00;93545.88;2104717;28;20071;-83
2023/05/27 03:28:14;;;;;;;24.15;10.23;;;;;;;7.65;100.00;93543.97;2120715;27;20543;-81
2023/05/27 03:29:20;;;;;;;26.60;11.02;;;;;;;7.65;100.00;93545.88;2121698;27;20012;-82
2023/05/27 03:30:28;;;;;;;29.55;10.57;;;;;;;7.66;100.00;93547.38;2128534;27;20043;-81
2023/05/27 03:31:35;;;;;;;26.00;10.35;;;;;;;7.67;100.00;93540.91;2113589;28;20031;-82
2023/05/27 03:32:43;;;;;;;24.92;10.88;;;;;;;7.65;100.00;93540.56;2107345;28;20031;-83
2023/05/27 03:33:48;;;;;;;26.35;10.50;;;;;;;7.63;100.00;93546.25;2099546;28;20020;-81
2023/05/27 03:34:55;;;;;;;24.85;10.05;;;;;;;7.58;100.00;93544.00;2100146;28;20089;-82
2023/05/27 03:36:00;;;;;;;23.65;10.20;;;;;;;7.51;100.00;93549.34;2120282;27;20058;-80
2023/05/27 03:37:06;;;;;;;25.58;10.65;;;;;;;7.51;100.00;93546.69;2115526;28;20024;-82
2023/05/27 03:38:13;;;;;;;27.33;10.52;;;;;;;7.53;100.00;93547.81;2107481;28;20031;-80
2023/05/27 03:39:16;;;;;;;32.10;9.60;;;;;;;7.56;100.00;93552.38;2104786;28;20020;-80
2023/05/27 03:40:23;;;;;;;30.65;10.43;;;;;;;7.50;100.00;93545.16;2107581;28;20369;-81
2023/05/27 03:41:31;;;;;;;26.13;10.57;;;;;;;7.51;100.00;93541.38;2101039;28;20039;-81
2023/05/27 03:42:35;;;;;;;28.17;10.98;;;;;;;7.48;100.00;93539.47;2100854;28;20509;-81
2023/05/27 03:43:44;;;;;;;23.27;11.15;;;;;;;7.48;100.00;93537.56;2107438;28;20031;-81
2023/05/27 03:44:53;;;;;;;25.35;10.20;;;;;;;7.49;100.00;93544.41;2106806;28;20028;-80
2023/05/27 03:46:01;;;;;;;26.50;11.13;;;;;;;7.40;100.00;93546.72;2097341;28;20032;-81
2023/05/27 03:47:09;;;;;;;25.85;9.95;;;;;;;7.55;100.00;93539.44;2108613;28;20035;-82
2023/05/27 03:48:17;;;;;;;22.92;10.50;;;;;;;7.40;100.00;93546.72;2115611;28;20038;-82
2023/05/27 03:49:27;;;;;;;24.42;10.18;;;;;;;7.44;100.00;93546.69;2102191;28;20016;-81
2023/05/27 03:50:37;;;;;;;24.08;9.98;;;;;;;7.45;100.00;93545.56;2092425;28;20558;-81
2023/05/27 03:51:42;;;;;;;22.13;10.05;;;;;;;7.46;100.00;93549.72;2092828;28;20041;-81
2023/05/27 03:52:51;;;;;;;24.10;9.75;;;;;;;7.42;100.00;93554.28;2092684;28;20025;-81
2023/05/27 03:53:55;;;;;;;24.30;9.55;;;;;;;7.30;100.00;93550.91;2099188;28;20024;-80
2023/05/27 03:55:03;;;;;;;23.88;9.88;;;;;;;7.27;100.00;93542.94;2107908;27;20103;-82
2023/05/27 03:56:11;;;;;;;19.88;9.32;;;;;;;7.28;100.00;93547.13;2111249;28;20020;-81
2023/05/27 03:57:19;;;;;;;22.88;10.18;;;;;;;7.34;100.00;93550.16;2115053;28;20488;-82
2023/05/27 03:58:26;;;;;;;22.08;9.27;;;;;;;7.31;100.00;93552.44;2115577;28;20026;-81
2023/05/27 03:59:35;;;;;;;15.15;8.90;;;;;;;7.30;100.00;93547.50;2111852;28;20053;-81
2023/05/27 04:00:44;;;;;;;20.90;9.63;;;;;;;7.34;100.00;93550.16;2105638;28;20082;-82
2023/05/27 04:01:55;;;;;;;25.85;9.93;;;;;;;7.32;100.00;93545.22;2108197;28;20533;-82
2023/05/27 04:03:04;;;;;;;17.98;9.13;;;;;;;7.29;100.00;93554.72;2112981;28;20051;-81
2023/05/27 04:04:12;;;;;;;24.58;9.85;;;;;;;7.24;100.00;93547.16;2108869;28;20020;-81
2023/05/27 04:05:18;;;;;;;24.73;9.77;;;;;;;7.34;100.00;93553.56;2116723;27;20040;-80
2023/05/27 04:06:23;;;;;;;22.10;9.18;;;;;;;7.35;100.00;93544.44;2116964;27;20034;-81
2023/05/27 04:07:31;;;;;;;26.50;10.00;;;;;;;7.38;100.00;93543.69;2107709;28;20099;-80
2023/05/27 04:08:40;;;;;;;23.05;9.40;;;;;;;7.44;100.00;93544.78;2108354;28;20074;-80
2023/05/27 04:09:50;;;;;;;23.13;9.80;;;;;;;7.45;100.00;93541.00;2108203;28;20028;-82
2023/05/27 04:11:13;;;;;;;25.63;10.00;;;;;;;7.56;100.00;93549.72;2102054;28;20454;-80
2023/05/27 04:12:21;;;;;;;27.73;9.80;;;;;;;7.61;100.00;93542.47;2110113;28;20401;-80
2023/05/27 04:13:28;;;;;;;21.90;9.13;;;;;;;7.57;100.00;93543.25;2099667;28;20028;-81
2023/05/27 04:14:35;;;;;;;22.05;9.05;;;;;;;7.50;100.00;93540.59;2105611;27;20024;-80
2023/05/27 04:15:41;;;;;;;20.35;9.27;;;;;;;7.56;100.00;93539.06;2107297;28;20047;-80
2023/05/27 04:16:48;;;;;;;25.77;9.65;;;;;;;7.58;100.00;93544.00;2092073;28;20024;-81
2023/05/27 04:17:59;;;;;;;21.50;9.40;;;;;;;7.61;100.00;93539.81;2104549;28;20454;-83
2023/05/27 04:19:07;;;;;;;23.90;9.23;;;;;;;7.56;100.00;93543.63;2115024;27;20081;-82
2023/05/27 04:20:18;;;;;;;24.83;8.85;;;;;;;7.62;100.00;93549.31;2107569;28;20710;-82
2023/05/27 04:21:27;;;;;;;26.73;9.00;;;;;;;7.63;100.00;93545.50;2098911;28;20481;-79
2023/05/27 04:22:34;;;;;;;24.52;9.10;;;;;;;7.60;100.00;93546.28;2100659;28;20028;-85
2023/05/27 04:23:41;;;;;;;25.45;9.40;;;;;;;7.61;100.00;93543.22;2107632;28;20032;-81
2023/05/27 04:24:51;;;;;;;29.92;10.48;;;;;;;7.69;100.00;93543.97;2107678;28;20047;-81
2023/05/27 04:26:00;;;;;;;25.40;8.95;;;;;;;7.69;100.00;93544.72;2104716;28;20110;-84
2023/05/27 04:27:09;;;;;;;23.80;9.52;;;;;;;7.74;100.00;93535.59;2101083;28;20027;-80
2023/05/27 04:28:17;;;;;;;25.30;9.75;;;;;;;7.77;100.00;93540.09;2115733;27;20592;-82
2023/05/27 04:29:28;;;;;;;33.13;9.82;;;;;;;7.80;100.00;93544.66;2114780;28;20483;-82
2023/05/27 04:30:39;;;;;;;20.23;9.60;;;;;;;7.81;100.00;93540.84;2100917;28;20019;-82
2023/05/27 04:31:50;;;;;;;26.13;10.30;;;;;;;7.83;100.00;93542.00;2092854;28;20021;-80
2023/05/27 04:32:53;;;;;;;23.40;8.70;;;;;;;7.90;100.00;93540.44;2096398;28;20055;-81
2023/05/27 04:33:56;;;;;;;23.52;9.20;;;;;;;7.91;100.00;93540.06;2099157;28;20029;-82
2023/05/27 04:35:02;;;;;;;25.92;10.30;;;;;;;7.91;100.00;93540.06;2102303;28;20016;-82
2023/05/27 04:36:12;;;;;;;27.73;9.35;;;;;;;7.98;100.00;93544.59;2112040;27;20020;-82
2023/05/27 04:37:19;;;;;;;18.33;9.05;;;;;;;8.04;100.00;93541.13;2115304;28;20022;-81
2023/05/27 04:38:31;;;;;;;24.90;9.25;;;;;;;8.15;100.00;93537.66;2092249;28;20041;-80
2023/05/27 04:39:45;;;;;;;21.58;9.48;;;;;;;8.21;100.00;93541.41;2107731;27;20444;-83
2023/05/27 04:40:54;;;;;;;27.20;9.68;;;;;;;8.35;100.00;93532.59;2123582;27;20380;-81
2023/05/27 04:42:08;;;;;;;26.73;9.60;;;;;;;8.35;100.00;93541.34;2114500;28;20414;-82
2023/05/27 04:43:20;;;;;;;28.27;9.60;;;;;;;8.48;100.00;93541.66;2110731;27;20465;-83
2023/05/27 04:44:28;;;;;;;18.88;8.52;;;;;;;8.51;100.00;93530.97;2115500;27;20046;-81
2023/05/27 04:45:29;;;;;;;22.48;9.30;;;;;;;8.50;100.00;93542.03;2107086;28;20024;-81
2023/05/27 04:46:30;;;;;;;25.38;8.90;;;;;;;8.40;100.00;93545.53;2097960;28;20016;-81
2023/05/27 04:47:36;;;;;;;27.77;10.02;;;;;;;8.43;100.00;93532.19;2092844;28;20104;-80
2023/05/27 04:48:38;;;;;;;24.73;8.90;;;;;;;8.44;100.00;93544.34;2105466;28;20850;-82
2023/05/27 04:49:39;;;;;;;31.15;10.38;;;;;;;8.50;100.00;93539.34;2104436;28;20043;-80
2023/05/27 04:50:41;;;;;;;26.30;9.38;;;;;;;8.55;100.00;93536.28;2099056;28;20031;-82
2023/05/27 04:51:44;;;;;;;27.48;9.90;;;;;;;8.51;100.00;93538.97;2106914;28;20077;-81
2023/05/27 04:52:46;;;;;;;27.98;10.32;;;;;;;8.48;100.00;93541.66;2110956;27;20103;-81
2023/05/27 04:53:50;;;;;;;32.60;10.13;;;;;;;8.50;100.00;93540.13;2106287;28;20012;-81
2023/05/27 04:54:51;;;;;;;28.13;8.60;;;;;;;8.51;100.00;93543.53;2114592;28;20462;-81
2023/05/27 04:55:52;;;;;;;25.77;9.40;;;;;;;8.54;100.00;93540.84;2114460;28;20066;-82
2023/05/27 04:56:54;;;;;;;25.05;9.32;;;;;;;8.51;100.00;93546.94;2106722;28;20537;-80
2023/05/27 04:57:56;;;;;;;27.17;9.45;;;;;;;8.56;100.00;93537.81;2095236;28;20866;-81
2023/05/27 04:58:58;;;;;;;21.15;9.85;;;;;;;8.58;100.00;93538.16;2114219;28;20687;-81
2023/05/27 05:01:05;;;;;;;24.45;9.95;;;;;;;8.64;100.00;93536.59;2109853;28;20058;-81
2023/05/27 05:02:09;;;;;;;33.28;9.57;;;;;;;8.65;100.00;93540.00;2106289;28;20020;-81
2023/05/27 05:03:20;;;;;;;31.75;9.77;;;;;;;8.70;100.00;93539.59;2114440;28;20421;-80
2023/05/27 05:04:21;;;;;;;26.65;9.68;;;;;;;8.69;100.00;93538.84;2106052;28;20077;-81
2023/05/27 05:05:22;;;;;;;26.45;8.98;;;;;;;8.71;100.00;93547.19;2097773;28;20028;-82
2023/05/27 05:06:23;;;;;;;27.67;9.48;;;;;;;8.77;100.00;93534.19;2104572;28;20032;-81
2023/05/27 05:07:25;;;;;;;29.60;9.68;;;;;;;8.85;100.00;93533.00;2105392;28;20116;-80
2023/05/27 05:08:26;;;;;;;30.35;9.13;;;;;;;8.94;100.00;93537.88;2101868;28;20019;-81
2023/05/27 05:09:27;;;;;;;25.20;9.98;;;;;;;8.93;100.00;93542.44;2104735;28;20102;-81
2023/05/27 05:10:30;;;;;;;25.48;8.43;;;;;;;8.90;100.00;93537.91;2089990;28;20056;-81
2023/05/27 05:11:32;;;;;;;27.92;9.70;;;;;;;8.92;100.00;93534.84;2091085;28;20016;-81
2023/05/27 05:12:36;;;;;;;33.15;10.02;;;;;;;8.93;100.00;93536.38;2118431;28;20020;-81